Ana Sayfa
METAR-TAF:

METAR-TAF

Havaalanları :

Ballina, Avustralya

Enlem: 28-50-00S, Boylam: 153-33-42E, yükseklik: 2 m

Güncel hava durumu gözlemi

Rapor saat 05:00 UTC de 40 dakika önce yapıldı.
Rüzgar doğudan 10 kt, kuzey ve doğu/güneydoğu arasında değişken
Sıcaklık 17°C
Nem 82%
Basınç 1028 hPa
Görüş mesafesi: 2400 m
2900 ft yükseklikte parçalı çok bulutlu
3800 ft yükseklikte parçalı çok bulutlu
6600 ft yükseklikte parçalı çok bulutlu

METAR: YBNA 260500Z AUTO 09010KT 360V110 2400 // BKN029 BKN038 BKN066 17/14 Q1028

Saat: 15:40 (05:40 UTC)


TAF: eksik

4.000'den fazla havaalanı için hava durumu gözlemleri ve tahminleri (METAR ve TAF raporları).

Kullanılabilir istasyonlar harita üzerinde sarı ve kırmızı noktalarla gösterilir.

İstasyonun adını görmek için fareyi noktanın üzerinde gezdirin.

Sonrasında hava gözlem ve tahminlerini görmek için tıklayın.

Haritayı değiştirmek için: yaklaştırmak için siyah artı işaretli yeşil düğmeye ve uzaklaştırmak için de eksi işaretli düğmeye hızla tıklayın; bitişik haritalar için yeşil okları kullanın.


METAR-TAF: